createdAt,value
2022-09-10T00:00:48.547Z,754.7
2022-09-10T00:02:31.927Z,751.1
2022-09-10T00:04:15.396Z,749.3
2022-09-10T00:05:58.785Z,747.2
2022-09-10T00:07:42.413Z,748.3
2022-09-10T00:09:25.935Z,747.8
2022-09-10T00:11:09.324Z,744.5
2022-09-10T00:12:52.694Z,742.8
2022-09-10T00:14:35.984Z,741.7
2022-09-10T00:16:19.423Z,742.8
2022-09-10T00:18:02.895Z,744.1
2022-09-10T00:21:29.301Z,743.7
2022-09-10T00:23:12.779Z,744.8
2022-09-10T00:24:56.055Z,744.5
2022-09-10T00:26:39.531Z,745.1
2022-09-10T00:28:22.889Z,743
2022-09-10T00:30:06.354Z,739.4
2022-09-10T00:31:49.630Z,738.8
2022-09-10T00:33:33.454Z,738.3
2022-09-10T00:35:16.862Z,738
2022-09-10T00:37:00.146Z,737.7
2022-09-10T00:38:43.618Z,736.6
2022-09-10T00:40:26.944Z,741.2
2022-09-10T00:42:10.412Z,741.1
2022-09-10T00:43:53.818Z,740.5
2022-09-10T00:45:37.469Z,738.6
2022-09-10T00:47:20.819Z,735.3
2022-09-10T00:49:04.284Z,731.5
2022-09-10T00:50:47.656Z,729.8
2022-09-10T00:52:31.052Z,727.7
2022-09-10T00:54:14.464Z,726.2
2022-09-10T00:55:57.808Z,726.1
2022-09-10T00:57:41.571Z,727.8
2022-09-10T00:59:24.905Z,727.3
2022-09-10T01:01:08.306Z,726.2
2022-09-10T01:02:51.773Z,725.1
2022-09-10T01:04:35.194Z,724
2022-09-10T01:06:18.545Z,725.5
2022-09-10T01:08:01.944Z,725.5
2022-09-10T01:09:45.627Z,723.4
2022-09-10T01:11:29.045Z,724.2
2022-09-10T01:13:12.366Z,722.3
2022-09-10T01:14:55.883Z,720.7
2022-09-10T01:16:39.291Z,717.8
2022-09-10T01:18:22.563Z,718.3
2022-09-10T01:20:05.969Z,718
2022-09-10T01:23:32.568Z,717.3
2022-09-10T01:25:15.820Z,720.5
2022-09-10T01:26:59.311Z,719.3
2022-09-10T01:28:42.656Z,721.2
2022-09-10T01:30:26.090Z,721.2
2022-09-10T01:32:09.411Z,720.7
2022-09-10T01:33:52.922Z,722.5
2022-09-10T01:37:19.394Z,719
2022-09-10T01:39:02.791Z,718.6
2022-09-10T01:40:46.171Z,721.2
2022-09-10T01:42:29.503Z,718.8
2022-09-10T01:44:12.878Z,716
2022-09-10T01:45:56.417Z,715.3
2022-09-10T01:47:39.701Z,715.7
2022-09-10T01:51:06.269Z,709.9
2022-09-10T01:52:49.609Z,708.1
2022-09-10T01:54:32.940Z,708.5
2022-09-10T01:56:16.310Z,710
2022-09-10T01:57:59.827Z,709.8
2022-09-10T01:59:43.110Z,705.8
2022-09-10T02:01:26.606Z,708.2
2022-09-10T02:04:53.090Z,704.4
2022-09-10T02:06:36.382Z,703.4
2022-09-10T02:08:19.876Z,705.2
2022-09-10T02:10:03.188Z,704.4
2022-09-10T02:11:46.632Z,704.7
2022-09-10T02:13:29.980Z,702.2
2022-09-10T02:15:13.456Z,701.1
2022-09-10T02:18:39.929Z,697.1
2022-09-10T02:20:23.235Z,690.6
2022-09-10T02:22:06.700Z,688.2
2022-09-10T02:23:50.124Z,687.6
2022-09-10T02:25:33.449Z,687.7
2022-09-10T02:27:16.915Z,685.1
2022-09-10T02:29:00.313Z,684.7
2022-09-10T02:32:26.767Z,682.7
2022-09-10T02:34:10.063Z,680.8
2022-09-10T02:35:53.559Z,679.3
2022-09-10T02:37:36.891Z,679
2022-09-10T02:39:20.265Z,681.6
2022-09-10T02:41:03.645Z,682.3
2022-09-10T02:42:47.129Z,677.7
2022-09-10T02:44:30.534Z,676
2022-09-10T02:46:14.206Z,673.8
2022-09-10T02:47:57.602Z,672.8
2022-09-10T02:49:41.041Z,672.3
2022-09-10T02:51:24.374Z,671.6
2022-09-10T02:53:07.746Z,670.1
2022-09-10T02:54:51.132Z,670.4
2022-09-10T02:56:34.549Z,669.8
2022-09-10T03:00:01.022Z,665.6
2022-09-10T03:01:44.400Z,666.7
2022-09-10T03:03:27.813Z,663.6
2022-09-10T03:05:11.239Z,663
2022-09-10T03:06:54.584Z,662.5
2022-09-10T03:08:37.992Z,663.6
2022-09-10T03:10:21.379Z,666
2022-09-10T03:15:30.628Z,663.2
2022-09-10T03:17:14.012Z,663.6
2022-09-10T03:18:57.413Z,662.5
2022-09-10T03:20:40.811Z,662.5
2022-09-10T03:22:24.197Z,661.1
2022-09-10T03:24:07.626Z,659.5
2022-09-10T03:25:51.002Z,658.7
2022-09-10T03:27:34.708Z,657.1
2022-09-10T03:29:18.111Z,656.6
2022-09-10T03:31:01.490Z,656.4
2022-09-10T03:32:44.880Z,656.4
2022-09-10T03:34:28.274Z,657.4
2022-09-10T03:36:11.671Z,660.8
2022-09-10T03:37:55.084Z,662
2022-09-10T03:41:21.559Z,665.6
2022-09-10T03:43:04.948Z,665
2022-09-10T03:44:48.349Z,666.1
2022-09-10T03:46:31.727Z,663.7
2022-09-10T03:48:15.138Z,659.3
2022-09-10T03:49:58.550Z,657.2
2022-09-10T03:51:41.934Z,656.4
2022-09-10T03:53:25.655Z,657.1
2022-09-10T03:55:09.091Z,655.1
2022-09-10T03:56:52.408Z,652
2022-09-10T03:58:35.813Z,651.2
2022-09-10T04:00:19.218Z,653.3
2022-09-10T04:02:02.615Z,654.1
2022-09-10T04:03:46.000Z,650.5
2022-09-10T04:07:12.511Z,643.9
2022-09-10T04:08:55.864Z,642.1
2022-09-10T04:10:39.267Z,642.1
2022-09-10T04:12:22.666Z,640.6
2022-09-10T04:14:06.122Z,641.2
2022-09-10T04:17:32.845Z,642.7
2022-09-10T04:19:16.544Z,645.2
2022-09-10T04:20:59.958Z,643.6
2022-09-10T04:22:43.361Z,648
2022-09-10T04:24:26.750Z,645.6
2022-09-10T04:26:10.143Z,645.6
2022-09-10T04:27:53.545Z,644
2022-09-10T04:29:36.940Z,640.5
2022-09-10T04:33:03.423Z,642.6
2022-09-10T04:34:46.812Z,643
2022-09-10T04:36:30.230Z,645.2
2022-09-10T04:38:13.610Z,648.3
2022-09-10T04:39:57.023Z,648.8
2022-09-10T04:41:40.392Z,646.3
2022-09-10T04:43:23.783Z,643.3
2022-09-10T04:46:50.261Z,645.8
2022-09-10T04:48:33.654Z,645.4
2022-09-10T04:50:17.068Z,644.6
2022-09-10T04:52:00.541Z,645.4
2022-09-10T04:53:43.825Z,644.5
2022-09-10T04:55:27.241Z,646.8
2022-09-10T04:57:10.628Z,647.2
2022-09-10T04:58:54.355Z,645.5
2022-09-10T05:00:37.823Z,645.7
2022-09-10T05:02:21.126Z,643.2
2022-09-10T05:04:04.529Z,644.1
2022-09-10T05:05:47.914Z,643
2022-09-10T05:07:31.306Z,642.5
2022-09-10T05:09:14.718Z,644.3
2022-09-10T05:12:41.191Z,648.5
2022-09-10T05:14:24.584Z,655.7
2022-09-10T05:16:07.975Z,654.2
2022-09-10T05:17:51.373Z,658
2022-09-10T05:19:34.771Z,658.2
2022-09-10T05:21:18.155Z,675.5
2022-09-10T05:23:01.558Z,694.3
2022-09-10T05:24:45.273Z,708.5
2022-09-10T05:26:28.654Z,758.7
2022-09-10T05:28:12.057Z,754.3
2022-09-10T05:29:55.452Z,744.6
2022-09-10T05:31:38.847Z,724.3
2022-09-10T05:33:22.249Z,714
2022-09-10T05:35:05.635Z,715.3
2022-09-10T05:38:32.124Z,726.3
2022-09-10T05:40:15.503Z,725.6
2022-09-10T05:41:58.895Z,726.5
2022-09-10T05:43:42.304Z,728.1
2022-09-10T05:45:25.690Z,732.3
2022-09-10T05:47:09.099Z,736.3
2022-09-10T05:48:52.480Z,739.3
2022-09-10T05:52:18.965Z,738.6
2022-09-10T05:54:02.361Z,744.3
2022-09-10T05:55:45.752Z,747.7
2022-09-10T05:57:29.145Z,747.1
2022-09-10T05:59:12.540Z,743.7
2022-09-10T06:00:55.946Z,742.1
2022-09-10T06:02:39.337Z,742.1
2022-09-10T06:06:05.804Z,747.6
2022-09-10T06:07:49.206Z,751.8
2022-09-10T06:09:32.651Z,754.1
2022-09-10T06:11:15.991Z,752
2022-09-10T06:12:59.398Z,751.3
2022-09-10T06:14:42.795Z,748.6
2022-09-10T06:16:26.194Z,747.7
2022-09-10T06:19:52.648Z,746
2022-09-10T06:21:36.072Z,745.1
2022-09-10T06:23:19.450Z,746
2022-09-10T06:25:02.844Z,744.7
2022-09-10T06:26:46.243Z,742.1
2022-09-10T06:28:29.628Z,742
2022-09-10T06:30:13.057Z,739.6
2022-09-10T06:33:39.507Z,734.7
2022-09-10T06:35:22.905Z,732
2022-09-10T06:37:06.296Z,731.3
2022-09-10T06:38:49.702Z,731.5
2022-09-10T06:40:33.093Z,730.5
2022-09-10T06:42:16.477Z,727.3
2022-09-10T06:43:59.886Z,726.8
2022-09-10T06:45:43.590Z,727.4
2022-09-10T06:47:26.984Z,725.2
2022-09-10T06:49:10.416Z,725.4
2022-09-10T06:50:53.767Z,723.5
2022-09-10T06:52:37.181Z,719.2
2022-09-10T06:54:20.562Z,716.3
2022-09-10T06:56:03.970Z,713.2
2022-09-10T06:59:30.443Z,702.6
2022-09-10T07:01:13.830Z,702.3
2022-09-10T07:02:57.234Z,700.4
2022-09-10T07:04:40.633Z,698.2
2022-09-10T07:06:24.011Z,695.3
2022-09-10T07:08:07.422Z,695
2022-09-10T07:09:50.810Z,696.6
2022-09-10T07:13:17.276Z,699.9
2022-09-10T07:15:00.720Z,704.5
2022-09-10T07:16:44.069Z,704
2022-09-10T07:18:27.467Z,704.3
2022-09-10T07:20:10.860Z,705.8
2022-09-10T07:21:54.258Z,707.6
2022-09-10T07:23:37.658Z,711
2022-09-10T07:27:04.133Z,712.7
2022-09-10T07:28:47.536Z,713.6
2022-09-10T07:30:30.924Z,712.7
2022-09-10T07:32:14.331Z,709.4
2022-09-10T07:33:57.708Z,706.3
2022-09-10T07:35:41.104Z,705.5
2022-09-10T07:37:24.512Z,700.4
2022-09-10T07:40:50.969Z,694.5
2022-09-10T07:42:34.374Z,693.4
2022-09-10T07:44:17.777Z,688.4
2022-09-10T07:46:01.174Z,686.4
2022-09-10T07:47:44.560Z,685.8
2022-09-10T07:49:27.954Z,686
2022-09-10T07:51:11.345Z,684
2022-09-10T07:52:55.062Z,681.1
2022-09-10T07:54:38.444Z,682.8
2022-09-10T07:56:21.849Z,682.2
2022-09-10T07:58:05.228Z,684.6
2022-09-10T07:59:48.639Z,686.8
2022-09-10T08:01:32.042Z,687.5
2022-09-10T08:03:15.462Z,689.1
2022-09-10T08:06:41.961Z,694.7
2022-09-10T08:08:25.289Z,694.6
2022-09-10T08:10:08.704Z,693.5
2022-09-10T08:11:52.095Z,697.1
2022-09-10T08:13:35.480Z,703.5
2022-09-10T08:15:18.887Z,703.7
2022-09-10T08:17:02.281Z,705.6
2022-09-10T08:18:45.974Z,706.6
2022-09-10T08:20:29.372Z,704.7
2022-09-10T08:22:12.781Z,705.7
2022-09-10T08:23:56.170Z,711.8
2022-09-10T08:25:39.581Z,719.2
2022-09-10T08:27:22.968Z,716
2022-09-10T08:29:06.609Z,720.8
2022-09-10T08:32:32.829Z,717.1
2022-09-10T08:34:16.231Z,716.3
2022-09-10T08:35:59.630Z,717.3
2022-09-10T08:37:43.016Z,721
2022-09-10T08:39:26.438Z,732.1
2022-09-10T08:41:09.828Z,744.3
2022-09-10T08:42:53.204Z,786.5
2022-09-10T08:46:19.677Z,806.7
2022-09-10T08:48:03.090Z,798.6
2022-09-10T08:49:46.472Z,796.4
2022-09-10T08:51:29.877Z,802.4
2022-09-10T08:53:13.271Z,817.2
2022-09-10T08:54:56.673Z,832.7
2022-09-10T08:56:40.070Z,838.5
2022-09-10T08:58:23.769Z,838.2
2022-09-10T09:00:07.159Z,837.6
2022-09-10T09:01:50.561Z,835.2
2022-09-10T09:03:33.951Z,836
2022-09-10T09:05:17.352Z,834.6
2022-09-10T09:07:00.759Z,844.2
2022-09-10T09:08:44.161Z,852.6
2022-09-10T09:12:10.622Z,861.7
2022-09-10T09:13:54.014Z,873.8
2022-09-10T09:15:37.404Z,879.3
2022-09-10T09:17:20.818Z,868.4
2022-09-10T09:19:04.214Z,841.2
2022-09-10T09:20:47.608Z,809.7
2022-09-10T09:22:30.997Z,778.4
2022-09-10T09:24:14.712Z,747.6
2022-09-10T09:25:58.110Z,732.4
2022-09-10T09:27:41.495Z,724.7
2022-09-10T09:29:24.893Z,719.6
2022-09-10T09:31:08.292Z,716.5
2022-09-10T09:32:51.700Z,718.2
2022-09-10T09:34:35.089Z,724.3
2022-09-10T09:38:01.587Z,726.2
2022-09-10T09:39:44.963Z,718.3
2022-09-10T09:41:28.344Z,694.6
2022-09-10T09:43:11.766Z,678.1
2022-09-10T09:44:55.158Z,668.1
2022-09-10T09:46:38.543Z,665.8
2022-09-10T09:48:22.011Z,666.4
2022-09-10T09:51:48.419Z,662.7
2022-09-10T09:53:31.819Z,659.6
2022-09-10T09:56:58.689Z,648.7
2022-09-10T09:58:42.022Z,646.3
2022-09-10T10:00:25.395Z,643.6
2022-09-10T10:02:08.788Z,640.5
2022-09-10T10:05:35.276Z,643.5
2022-09-10T10:07:18.668Z,651.4
2022-09-10T10:09:02.086Z,657.6
2022-09-10T10:10:45.456Z,659.8
2022-09-10T10:12:28.849Z,657.4
2022-09-10T10:14:12.283Z,667.7
2022-09-10T10:15:55.637Z,677.4
2022-09-10T10:19:22.128Z,685.8
2022-09-10T10:21:05.524Z,692.4
2022-09-10T10:22:49.013Z,695.3
2022-09-10T10:24:32.366Z,698.3
2022-09-10T10:26:15.699Z,693.3
2022-09-10T10:27:59.109Z,687
2022-09-10T10:29:42.504Z,679.7
2022-09-10T10:33:08.983Z,694.9
2022-09-10T10:34:52.364Z,714.3
2022-09-10T10:36:35.756Z,731.1
2022-09-10T10:38:19.149Z,741.2
2022-09-10T10:40:02.563Z,746.5
2022-09-10T10:41:45.954Z,750.8
2022-09-10T10:43:29.372Z,752.5
2022-09-10T10:45:13.042Z,755
2022-09-10T10:46:56.453Z,756.7
2022-09-10T10:48:39.852Z,761.8
2022-09-10T10:50:23.249Z,765.4
2022-09-10T10:52:06.647Z,767.2
2022-09-10T10:53:50.034Z,767.2
2022-09-10T10:55:33.437Z,764.8
2022-09-10T10:58:59.895Z,786.5
2022-09-10T11:00:43.305Z,785.7
2022-09-10T11:02:26.711Z,780.2
2022-09-10T11:04:10.119Z,788.6
2022-09-10T11:05:53.492Z,796.2
2022-09-10T11:07:36.976Z,800.4
2022-09-10T11:11:03.445Z,804.5
2022-09-10T11:12:46.901Z,810
2022-09-10T11:14:30.188Z,812.2
2022-09-10T11:16:13.548Z,818
2022-09-10T11:17:56.975Z,825
2022-09-10T11:19:40.362Z,828.6
2022-09-10T11:21:23.733Z,830.2
2022-09-10T11:24:50.293Z,835.7
2022-09-10T11:26:33.616Z,851.2
2022-09-10T11:28:17.045Z,866.5
2022-09-10T11:30:00.401Z,882.2
2022-09-10T11:31:43.801Z,887.2
2022-09-10T11:33:27.199Z,881.1
2022-09-10T11:35:10.599Z,870.6
2022-09-10T11:36:54.345Z,874.6
2022-09-10T11:38:37.706Z,881.3
2022-09-10T11:40:21.096Z,884.7
2022-09-10T11:42:04.489Z,884.5
2022-09-10T11:43:47.873Z,880.6
2022-09-10T11:45:31.281Z,883.8
2022-09-10T11:47:14.686Z,880.3
2022-09-10T11:50:41.164Z,887.6
2022-09-10T11:52:24.586Z,891.2
2022-09-10T11:54:07.948Z,887.5
2022-09-10T11:55:51.346Z,887.8
2022-09-10T11:57:34.743Z,891.7
2022-09-10T11:59:18.177Z,889.4
2022-09-10T12:04:27.387Z,895.9
2022-09-10T12:06:10.776Z,900
2022-09-10T12:07:54.193Z,902.3
2022-09-10T12:09:37.566Z,909.4
2022-09-10T12:11:20.978Z,914
2022-09-10T12:13:04.364Z,916
2022-09-10T12:14:47.761Z,915.4
2022-09-10T12:16:31.468Z,916
2022-09-10T12:18:14.880Z,915.5
2022-09-10T12:19:58.259Z,914.7
2022-09-10T12:21:41.660Z,917.8
2022-09-10T12:23:25.113Z,919.3
2022-09-10T12:25:08.474Z,917.7
2022-09-10T12:26:51.844Z,912.4
2022-09-10T12:30:18.317Z,908
2022-09-10T12:32:01.723Z,901
2022-09-10T12:33:45.111Z,890.5
2022-09-10T12:35:28.506Z,883
2022-09-10T12:37:11.906Z,874.2
2022-09-10T12:38:55.307Z,872.5
2022-09-10T12:44:04.555Z,876.9
2022-09-10T12:45:47.933Z,885.6
2022-09-10T12:47:31.339Z,899.7
2022-09-10T12:49:14.807Z,912.1
2022-09-10T12:50:58.153Z,909.2
2022-09-10T12:52:41.518Z,911.3
2022-09-10T12:56:07.991Z,933.6
2022-09-10T12:57:51.389Z,949.1
2022-09-10T12:59:34.790Z,942.5
2022-09-10T13:01:18.192Z,933
2022-09-10T13:03:01.612Z,919.2
2022-09-10T13:04:44.987Z,912.5
2022-09-10T13:06:28.387Z,918.3
2022-09-10T13:08:12.078Z,927.9
2022-09-10T13:09:55.472Z,925.7
2022-09-10T13:11:38.875Z,924.1
2022-09-10T13:13:22.258Z,923.8
2022-09-10T13:15:05.663Z,927.3
2022-09-10T13:16:49.064Z,928.2
2022-09-10T13:18:32.456Z,931.7
2022-09-10T13:21:58.942Z,946.8
2022-09-10T13:23:42.325Z,950.6
2022-09-10T13:25:25.755Z,953.1
2022-09-10T13:27:09.119Z,950.4
2022-09-10T13:28:52.501Z,951.6
2022-09-10T13:30:35.903Z,953.2
2022-09-10T13:32:19.313Z,957.6
2022-09-10T13:34:03.019Z,958
2022-09-10T13:35:46.400Z,958.1
2022-09-10T13:37:29.806Z,954
2022-09-10T13:39:13.211Z,951.2
2022-09-10T13:40:56.594Z,952.2
2022-09-10T13:42:40.004Z,934.4
2022-09-10T13:44:23.551Z,921.1
2022-09-10T13:46:07.126Z,924.2
2022-09-10T13:47:50.486Z,926.7
2022-09-10T13:49:33.875Z,919.1
2022-09-10T13:51:17.296Z,909.7
2022-09-10T13:53:00.691Z,904.2
2022-09-10T13:54:44.083Z,897
2022-09-10T13:56:27.466Z,890.1
2022-09-10T13:59:53.951Z,885.1
2022-09-10T14:01:37.341Z,881.3
2022-09-10T14:03:20.760Z,882.8
2022-09-10T14:05:04.140Z,885.3
2022-09-10T14:06:47.544Z,882.4
2022-09-10T14:08:30.947Z,881.6
2022-09-10T14:10:14.315Z,880.2
2022-09-10T14:11:58.023Z,879.2
2022-09-10T14:13:41.450Z,877.5
2022-09-10T14:15:24.931Z,876.8
2022-09-10T14:17:08.215Z,875.5
2022-09-10T14:18:51.693Z,877.1
2022-09-10T14:20:35.045Z,882
2022-09-10T14:22:18.403Z,884.2
2022-09-10T14:25:44.891Z,886.6
2022-09-10T14:27:28.305Z,888.5
2022-09-10T14:29:11.694Z,892.5
2022-09-10T14:30:55.074Z,892
2022-09-10T14:32:38.481Z,893.4
2022-09-10T14:34:21.875Z,897.4
2022-09-10T14:36:05.275Z,901.4
2022-09-10T14:37:48.970Z,905.8
2022-09-10T14:39:32.476Z,905.1
2022-09-10T14:41:15.780Z,903.3
2022-09-10T14:42:59.160Z,911
2022-09-10T14:44:42.569Z,916
2022-09-10T14:46:25.958Z,920.6
2022-09-10T14:48:09.351Z,921.2
2022-09-10T14:51:35.846Z,923.1
2022-09-10T14:53:19.230Z,929.4
2022-09-10T14:55:02.615Z,932.2
2022-09-10T14:56:46.016Z,937
2022-09-10T14:58:29.408Z,937.2
2022-09-10T15:00:12.804Z,936
2022-09-10T15:01:56.212Z,938.1
2022-09-10T15:05:22.688Z,951.2
2022-09-10T15:07:06.060Z,959.3
2022-09-10T15:08:49.466Z,963.7
2022-09-10T15:10:32.872Z,971.5
2022-09-10T15:12:16.321Z,979
2022-09-10T15:13:59.706Z,986.3
2022-09-10T15:15:43.065Z,987.6
2022-09-10T15:19:09.526Z,984.3
2022-09-10T15:20:52.933Z,974.2
2022-09-10T15:22:36.321Z,965
2022-09-10T15:24:19.733Z,958.3
2022-09-10T15:26:03.111Z,951.7
2022-09-10T15:27:46.504Z,944
2022-09-10T15:29:29.918Z,944.5
2022-09-10T15:32:56.441Z,946.9
2022-09-10T15:34:39.790Z,947.6
2022-09-10T15:36:23.178Z,953.8
2022-09-10T15:38:06.573Z,960.1
2022-09-10T15:39:49.965Z,967.5
2022-09-10T15:41:33.377Z,974.1
2022-09-10T15:43:16.795Z,975.3
2022-09-10T15:46:43.235Z,980.1
2022-09-10T15:48:26.682Z,983.5
2022-09-10T15:50:10.033Z,983.4
2022-09-10T15:51:53.425Z,983.6
2022-09-10T15:53:36.828Z,987
2022-09-10T15:55:20.221Z,988.6
2022-09-10T15:57:03.611Z,988.2
2022-09-10T15:58:47.317Z,990.8
2022-09-10T16:00:30.729Z,999.1
2022-09-10T16:02:14.130Z,1011
2022-09-10T16:03:57.529Z,1021.1
2022-09-10T16:05:40.910Z,1029.3
2022-09-10T16:07:24.329Z,1028.8
2022-09-10T16:09:07.705Z,1028.5
2022-09-10T16:10:51.413Z,1029.7
2022-09-10T16:12:34.835Z,1032.7
2022-09-10T16:14:18.204Z,1037.6
2022-09-10T16:16:01.587Z,1044.8
2022-09-10T16:17:45.022Z,1051.1
2022-09-10T16:19:28.410Z,1055.1
2022-09-10T16:21:11.796Z,1059.6
2022-09-10T16:22:55.498Z,1058
2022-09-10T16:24:38.888Z,1053.7
2022-09-10T16:26:22.288Z,1051.1
2022-09-10T16:28:05.676Z,1057.3
2022-09-10T16:29:49.070Z,1064.1
2022-09-10T16:31:32.468Z,1069.5
2022-09-10T16:33:15.878Z,1068.4
2022-09-10T16:36:42.363Z,1070.4
2022-09-10T16:38:25.773Z,1074
2022-09-10T16:40:09.130Z,1075.4
2022-09-10T16:41:52.540Z,1080.5
2022-09-10T16:43:35.952Z,1091
2022-09-10T16:45:19.327Z,1099.5
2022-09-10T16:47:02.732Z,1096.5
2022-09-10T16:48:46.442Z,1096.9
2022-09-10T16:50:29.828Z,1098.4
2022-09-10T16:52:13.223Z,1106.1
2022-09-10T16:53:56.627Z,1112.8
2022-09-10T16:55:40.009Z,1118.3
2022-09-10T16:57:23.417Z,1118.6
2022-09-10T16:59:06.831Z,1119.6
2022-09-10T17:00:50.509Z,1119.8
2022-09-10T17:02:33.924Z,1115.3
2022-09-10T17:04:17.296Z,1115.3
2022-09-10T17:06:00.709Z,1116.8
2022-09-10T17:07:44.104Z,1120.4
2022-09-10T17:09:27.486Z,1127.7
2022-09-10T17:11:10.987Z,1138
2022-09-10T17:14:37.368Z,1152.8
2022-09-10T17:16:20.766Z,1151
2022-09-10T17:18:04.169Z,1151.2
2022-09-10T17:19:47.556Z,1153.2
2022-09-10T17:21:30.949Z,1153.2
2022-09-10T17:23:14.351Z,1149.7
2022-09-10T17:26:40.815Z,1155.1
2022-09-10T17:28:24.226Z,1156.3
2022-09-10T17:30:07.648Z,1151.2
2022-09-10T17:31:51.012Z,1144.4
2022-09-10T17:33:34.413Z,1142.8
2022-09-10T17:35:17.798Z,1142.3
2022-09-10T17:37:01.199Z,1147.2
2022-09-10T17:40:27.682Z,1153.7
2022-09-10T17:42:11.067Z,1157
2022-09-10T17:43:54.460Z,1158
2022-09-10T17:45:37.883Z,1159.5
2022-09-10T17:47:21.251Z,1158.8
2022-09-10T17:49:04.663Z,1165.5
2022-09-10T17:52:31.130Z,1173.9
2022-09-10T17:54:14.565Z,1180
2022-09-10T17:55:57.919Z,1183.3
2022-09-10T17:57:41.323Z,1184.8
2022-09-10T17:59:24.766Z,1188.1
2022-09-10T18:01:08.114Z,1188.2
2022-09-10T18:02:51.506Z,1193.8
2022-09-10T18:06:17.980Z,1192.7
2022-09-10T18:08:01.384Z,1189.1
2022-09-10T18:09:44.784Z,1192.4
2022-09-10T18:11:28.205Z,1192.6
2022-09-10T18:13:11.597Z,1195.3
2022-09-10T18:14:55.007Z,1197.2
2022-09-10T18:16:38.386Z,1197.5
2022-09-10T18:18:22.103Z,1201.9
2022-09-10T18:20:05.462Z,1202.1
2022-09-10T18:21:48.871Z,1201.6
2022-09-10T18:23:32.247Z,1203
2022-09-10T18:25:15.676Z,1206.2
2022-09-10T18:26:59.106Z,1205.5
2022-09-10T18:28:42.441Z,1204.2
2022-09-10T18:32:08.919Z,1204.7
2022-09-10T18:33:52.303Z,1209.5
2022-09-10T18:35:35.723Z,1212.1
2022-09-10T18:37:19.103Z,1211.1
2022-09-10T18:39:02.520Z,1209.2
2022-09-10T18:40:45.901Z,1209.6
2022-09-10T18:42:29.281Z,1208.8
2022-09-10T18:45:55.760Z,1215.2
2022-09-10T18:47:39.169Z,1216.6
2022-09-10T18:49:22.563Z,1218.4
2022-09-10T18:51:05.956Z,1223.5
2022-09-10T18:52:49.423Z,1222.3
2022-09-10T18:54:32.746Z,1220.7
2022-09-10T18:56:16.180Z,1220.5
2022-09-10T18:59:42.643Z,1225.2
2022-09-10T19:01:26.012Z,1229.1
2022-09-10T19:03:09.402Z,1231.3
2022-09-10T19:04:52.824Z,1235.1
2022-09-10T19:06:36.213Z,1239.7
2022-09-10T19:08:19.606Z,1240.3
2022-09-10T19:10:02.994Z,1243.8
2022-09-10T19:13:29.496Z,1255.5
2022-09-10T19:15:12.920Z,1252
2022-09-10T19:16:56.274Z,1251
2022-09-10T19:18:39.662Z,1247.4
2022-09-10T19:20:23.056Z,1246.3
2022-09-10T19:22:06.474Z,1247.3
2022-09-10T19:23:49.871Z,1248.5
2022-09-10T19:27:16.365Z,1242.6
2022-09-10T19:28:59.732Z,1238
2022-09-10T19:30:43.146Z,1231.5
2022-09-10T19:32:26.581Z,1224.5
2022-09-10T19:34:09.968Z,1220.2
2022-09-10T19:35:53.353Z,1216.4
2022-09-10T19:37:36.722Z,1192.8
2022-09-10T19:39:20.509Z,1176.1
2022-09-10T19:41:03.828Z,1172.8
2022-09-10T19:42:47.239Z,1167.6
2022-09-10T19:44:30.642Z,1170.2
2022-09-10T19:46:14.013Z,1165.7
2022-09-10T19:47:57.382Z,1154.3
2022-09-10T19:49:40.814Z,1147.2
2022-09-10T19:53:07.266Z,1137.8
2022-09-10T19:54:50.717Z,1129
2022-09-10T19:56:34.098Z,1117.4
2022-09-10T19:58:17.447Z,1087.8
2022-09-10T20:00:00.860Z,1065.3
2022-09-10T20:01:44.233Z,1054.2
2022-09-10T20:03:27.659Z,1051.6
2022-09-10T20:06:54.167Z,1053.3
2022-09-10T20:08:37.510Z,1054.7
2022-09-10T20:10:20.911Z,1051.8
2022-09-10T20:12:04.322Z,1048.6
2022-09-10T20:13:47.737Z,1045.8
2022-09-10T20:15:31.211Z,1044.6
2022-09-10T20:17:14.513Z,1044.5
2022-09-10T20:20:40.956Z,1038.6
2022-09-10T20:22:24.368Z,1031.1
2022-09-10T20:24:07.796Z,1023.4
2022-09-10T20:25:51.149Z,1020.4
2022-09-10T20:27:34.560Z,1018.2
2022-09-10T20:29:17.999Z,1018.1
2022-09-10T20:31:01.348Z,1016.8
2022-09-10T20:34:27.832Z,1012.1
2022-09-10T20:36:11.207Z,1010.5
2022-09-10T20:37:54.624Z,1006.5
2022-09-10T20:39:38.000Z,1000.8
2022-09-10T20:41:21.408Z,995.8
2022-09-10T20:43:04.817Z,992.3
2022-09-10T20:44:48.190Z,989.4
2022-09-10T20:48:14.681Z,981.5
2022-09-10T20:49:58.120Z,974.1
2022-09-10T20:51:41.452Z,969.1
2022-09-10T20:53:24.882Z,962.4
2022-09-10T20:55:08.260Z,959.6
2022-09-10T20:56:51.650Z,958.6
2022-09-10T20:58:35.055Z,958.3
2022-09-10T21:02:01.540Z,954.3
2022-09-10T21:03:44.934Z,953.4
2022-09-10T21:05:28.302Z,951.4
2022-09-10T21:07:11.710Z,947.7
2022-09-10T21:08:55.110Z,943.5
2022-09-10T21:10:38.506Z,942.5
2022-09-10T21:12:21.933Z,938.4
2022-09-10T21:14:05.588Z,933.2
2022-09-10T21:15:49.002Z,933
2022-09-10T21:17:32.401Z,931.6
2022-09-10T21:19:15.819Z,924.2
2022-09-10T21:20:59.172Z,918.6
2022-09-10T21:22:42.648Z,913.4
2022-09-10T21:24:25.984Z,906.7
2022-09-10T21:27:52.443Z,893.2
2022-09-10T21:29:35.853Z,889.1
2022-09-10T21:31:19.247Z,887.2
2022-09-10T21:33:02.675Z,883.7
2022-09-10T21:34:46.042Z,877.3
2022-09-10T21:36:29.425Z,869.7
2022-09-10T21:38:12.824Z,877.6
2022-09-10T21:41:39.298Z,885.6
2022-09-10T21:43:22.748Z,888.7
2022-09-10T21:45:06.103Z,883.3
2022-09-10T21:46:49.487Z,879.7
2022-09-10T21:48:32.889Z,873.7
2022-09-10T21:50:16.267Z,867.3
2022-09-10T21:51:59.693Z,859.3
2022-09-10T21:55:26.150Z,845.4
2022-09-10T21:57:09.550Z,839.8
2022-09-10T21:58:52.928Z,835.4
2022-09-10T22:00:36.328Z,834.2
2022-09-10T22:02:19.723Z,826.6
2022-09-10T22:04:03.174Z,822
2022-09-10T22:05:46.541Z,818.4
2022-09-10T22:07:30.225Z,813.2
2022-09-10T22:09:13.644Z,808.6
2022-09-10T22:10:57.027Z,806.2
2022-09-10T22:12:40.418Z,802.2
2022-09-10T22:14:23.823Z,796.6
2022-09-10T22:16:07.213Z,792.2
2022-09-10T22:17:50.607Z,791.1
2022-09-10T22:21:17.100Z,786.5
2022-09-10T22:23:00.476Z,785.1
2022-09-10T22:24:43.862Z,784.7
2022-09-10T22:26:27.270Z,783.4
2022-09-10T22:28:10.667Z,781.2
2022-09-10T22:29:54.063Z,776.4
2022-09-10T22:31:37.452Z,772.1
2022-09-10T22:35:03.929Z,766.8
2022-09-10T22:36:47.322Z,764.2
2022-09-10T22:38:30.805Z,765.2
2022-09-10T22:40:14.370Z,765.3
2022-09-10T22:41:57.500Z,763.5
2022-09-10T22:43:40.907Z,761.5
2022-09-10T22:45:24.291Z,760.2
2022-09-10T22:47:08.010Z,757.1
2022-09-10T22:48:51.400Z,755
2022-09-10T22:50:34.800Z,755.6
2022-09-10T22:52:18.189Z,756.1
2022-09-10T22:54:01.590Z,755.1
2022-09-10T22:55:44.986Z,752.2
2022-09-10T22:57:28.417Z,752.2
2022-09-10T23:00:54.907Z,750.7
2022-09-10T23:02:38.290Z,748.5
2022-09-10T23:04:21.648Z,750.6
2022-09-10T23:06:05.058Z,750.8
2022-09-10T23:07:48.466Z,748.3
2022-09-10T23:09:31.832Z,745.2
2022-09-10T23:11:15.226Z,744.2
2022-09-10T23:14:41.715Z,740.5
2022-09-10T23:16:25.093Z,740.5
2022-09-10T23:18:08.502Z,740.8
2022-09-10T23:19:51.892Z,741.2
2022-09-10T23:21:35.286Z,742.5
2022-09-10T23:23:18.677Z,742.4
2022-09-10T23:25:02.110Z,741.4
2022-09-10T23:28:28.611Z,741.7
2022-09-10T23:30:11.951Z,744.7
2022-09-10T23:31:55.349Z,747.5
2022-09-10T23:33:38.726Z,747.8
2022-09-10T23:35:22.126Z,746.3
2022-09-10T23:37:05.527Z,744.7
2022-09-10T23:38:48.932Z,743.8
2022-09-10T23:42:15.392Z,740.7
2022-09-10T23:43:58.800Z,739.4
2022-09-10T23:45:42.204Z,738.3
2022-09-10T23:47:25.587Z,739.5
2022-09-10T23:49:08.982Z,739.6
2022-09-10T23:50:52.376Z,743.1
2022-09-10T23:52:35.768Z,743.3
2022-09-10T23:56:02.255Z,743.2
2022-09-10T23:57:45.646Z,741.6
2022-09-10T23:59:29.045Z,742.6
